Terminal Aerodrome Forecast
Issued by NWS Sterling, VA

Home | Current Version | Previous Version | Text Only | Print | Product List | Glossary On
Versions: 1 2 3 4 5 6 7 8 9 10 11 12 13 14 15 16 17 18 19 20 21 22 23 24
425
FTUS41 KLWX 042340
TAFBWI
TAF
KBWI 042340Z 0500/0606 07007KT 4SM -DZ BR OVC011
     FM050300 07006KT 4SM -DZ BR OVC008
     FM051600 04008KT P6SM OVC015=

USA.gov is the U.S. government's official web portal to all federal, state and local government web resources and services.